INFORMACIÓN METAR y TAF
METAR FOR GCFV
ADDS - METARS form results

(0104 UTC 15 August 2020)
Data provider http://aviationweather.gov/metar/data/
 
METAR text: GCFV 150100Z AUTO 03019KT 9999 FEW024 23/19 Q1018
Conditions at: GCFV (FUERTEVENTURA AR, ES) observed 0100 UTC 15 August 2020
Temperature: 23.0°C (73°F)
Dewpoint: 19.0°C (66°F) [RH = 78%]
Pressure (altimeter): 30.06 inches Hg (1018.0 mb)
Winds: from the NNE (30 degrees) at 22 MPH (19 knots; 9.8 m/s)
Visibility: 6 or more miles (10+ km)
Ceiling: at least 12,000 feet AGL
Clouds: few clouds at 2400 feet AGL
Weather: no significant weather observed at this time

METAR text: GCFV 150030Z AUTO 03018KT CAVOK 23/19 Q1018
Conditions at: GCFV (FUERTEVENTURA AR, ES) observed 0030 UTC 15 August 2020
Temperature: 23.0°C (73°F)
Dewpoint: 19.0°C (66°F) [RH = 78%]
Pressure (altimeter): 30.06 inches Hg (1018.0 mb)
Winds: from the NNE (30 degrees) at 21 MPH (18 knots; 9.3 m/s)
Visibility: 6 or more miles (10+ km)
Ceiling: ceiling and visibility are OK
Clouds: unknown
Weather: no significant weather observed at this time

Forecast for: GCFV (FUERTEVENTURA AR, ES)
Text: TAF GCFV 142000Z 1421/1521 35010KT 9999 FEW025 TX27/1514Z TN22/1506Z
Forecast period: 2100 UTC 14 August 2020 to 0600 UTC 15 August 2020
Forecast type: FROM: standard forecast or significant change
Winds: from the N (350 degrees) at 12 MPH (10 knots; 5.1 m/s)
Visibility: 6 or more miles (10+ km)
Ceiling: at least 12,000 feet AGL
Clouds: few clouds at 2500 feet AGL
Weather: no significant weather forecast for this period
Text: BECMG 1506/1508 05015KT
Forecast period: 0600 to 2100 UTC 15 August 2020
Forecast type: BECOMING: Conditions expected to become as follows by 0800 UTC 15 August 2020
Winds: from the NE (50 degrees) at 17 MPH (15 knots; 7.7 m/s)
Visibility: 6 or more miles (10+ km)
Ceiling: at least 12,000 feet AGL
Clouds: few clouds at 2500 feet AGL
Weather: no significant weather forecast for this period
Text: PROB30
Forecast period: 1100 to 1800 UTC 15 August 2020
Forecast type: TEMPORARY: The following changes expected for less than half the time period
Winds: from the NE (40 degrees) at 17 MPH (15 knots; 7.7 m/s)
gusting to 29 MPH (25 knots; 12.9 m/s)
Visibility: missing
Ceiling: unknown
Clouds: missing
Weather: no significant weather forecast for this period

MAPA DE AEROPUERTO

INFORMACIÓN DE PISTA
Pista 01 Longitud 7874 ft Ancho 148 ft
Elevación 37 ft Umbral desplazado 0 ft Rumbo de pista 2
Pista 19 Longitud 7874 ft Ancho 148 ft
Elevación 75 ft Umbral desplazado 0 ft Rumbo de pista 182

FRECUANCIAS DEL AEROPUERTO
Tipo APP Nombre CANARIAS A Frecuencia 129.3 MHZ
Tipo ATIS Nombre ATIS Frecuencia 118.65 MHZ
Tipo GND Nombre GND Frecuencia 121.7 MHZ
Tipo TWR Nombre TWR Frecuencia 118.5 MHZ

RADIO AYUDAS DEL AEROPUERTO
Tipo VOR-DME Nombre Fuerteventura Frecuencia 114100 KHZ